Estación Meteorológica Peña el Pijo (Robertgarden) [ 05/21/19 17:08:14 CEST ]

Fecha Hora Presion(HPa) Temp (°C) Humedad % Rocio (°C) Viento ( m/s) Direccion Lluvia 1Hora(mm) Lluvia 24H(mm) LLuvia Total(mm)
2018-Dec-30 01:01:51 1016.100 5.2 89 3.5       0.51 161.09
2018-Dec-30 02:02:03 1015.900 5.1 89 3.4       0.51 161.09
2018-Dec-30 03:02:06 1016.200 5.0 90 3.5       0.51 161.09
2018-Dec-30 04:02:04 1016.400 3.9 89 2.4       0.51 161.09
2018-Dec-30 05:02:10 1015.800 2.5 89 0.8       0.51 161.09
2018-Dec-30 06:05:13 1015.200 1.9 89 0.2       0.51 161.09
2018-Dec-30 07:01:40 1015.800 0.9 89 -0.8       0.51 161.09
2018-Dec-30 08:01:45 1016.300 -0.6 89 -2.2       0.51 161.09
2018-Dec-30 09:01:34 1017.000 -1.5 89 -3.1       0.51 161.09
2018-Dec-30 10:01:38 1016.800 2.4 91 1.1       0.51 161.09
2018-Dec-30 11:01:43 1017.400 5.9 88 4.1       0.51 161.09
2018-Dec-30 12:01:46 1016.600 9.8 69 4.4 1.3 ENE   0.51 161.09
2018-Dec-30 13:01:47 1015.700 11.1 54 2.1       0.51 161.09
2018-Dec-30 14:01:56 1015.000 12.0 43 -0.3 1.3 E   0.51 161.09
2018-Dec-30 15:01:34 1015.200 12.0 43 -0.3       0.51 161.09
2018-Dec-30 16:01:41 1015.600 10.9 45 -0.6       0.51 161.09
2018-Dec-30 17:01:36 1015.700 9.0 49 -1.2       0.51 161.09
2018-Dec-30 18:01:39 1016.200 6.4 56 -1.8       0.51 161.09
2018-Dec-30 19:01:52 1016.900 2.9 66 -2.8 0.7 NE   0.51 161.09
2018-Dec-30 20:01:48 1017.400 1.3 69 -3.8       0.51 161.09
2018-Dec-30 21:01:41 1017.900 0.1 74 -4.0       0.51 161.09
2018-Dec-30 22:01:38 1017.700 -0.9 75 -4.8       0.51 161.09
2018-Dec-30 23:01:53 1018.100 -2.2 78 -5.5         161.09

Temperatura Máxima:12°    Temperatura Mínima:-2°
Presión Máxima:1018.100 Hpa    Presión Mínima:1015.000 Hpa


Volver